Time;durP1;ratioP1;P1;durP2;ratioP2;P2;SDS_P1;SDS_P2;PMS_P1;PMS_P2;Temp;Humidity;BMP_temperature;BMP_pressure;BME280_temperature;BME280_humidity;BME280_pressure;Samples;Min_cycle;Max_cycle;Signal;HPM_P1;HPM_P2
2023/03/11 00:00:40;;;;;;;42.57;39.70;;;;;;;-141.22;100.00;65034.22;5014701;28;20502;-43
2023/03/11 00:03:09;;;;;;;46.23;42.87;;;;;;;-141.22;100.00;65034.22;5014231;28;20544;-46
2023/03/11 00:05:39;;;;;;;43.07;39.73;;;;;;;-141.22;100.00;65034.22;5008361;28;20475;-45
2023/03/11 00:08:12;;;;;;;40.43;37.90;;;;;;;-141.22;100.00;65034.22;5014249;28;20473;-47
2023/03/11 00:10:42;;;;;;;39.77;37.20;;;;;;;-141.22;100.00;65034.22;5014186;28;20433;-45
2023/03/11 00:13:14;;;;;;;37.67;35.47;;;;;;;-141.22;100.00;65034.22;5014163;28;20457;-45
2023/03/11 00:15:43;;;;;;;38.20;35.80;;;;;;;-141.22;100.00;65034.22;5013783;28;20469;-43
2023/03/11 00:18:10;;;;;;;36.50;34.23;;;;;;;-141.22;100.00;65034.22;5014257;28;20463;-45
2023/03/11 00:20:42;;;;;;;37.20;34.80;;;;;;;-141.22;100.00;65034.22;5014201;28;20424;-43
2023/03/11 00:23:12;;;;;;;35.47;33.57;;;;;;;-141.22;100.00;65034.22;5013728;28;20981;-45
2023/03/11 00:25:40;;;;;;;36.80;34.40;;;;;;;-141.22;100.00;65034.22;5013424;28;20555;-46
2023/03/11 00:28:09;;;;;;;36.77;34.47;;;;;;;-141.22;100.00;65034.22;5013878;28;20981;-49
2023/03/11 00:30:37;;;;;;;38.93;36.53;;;;;;;-141.22;100.00;65034.22;5013823;28;20428;-44
2023/03/11 00:33:07;;;;;;;38.10;35.80;;;;;;;-141.22;100.00;65034.22;5013764;28;20496;-45
2023/03/11 00:35:36;;;;;;;39.13;36.50;;;;;;;-141.22;100.00;65034.22;5012861;28;20464;-46
2023/03/11 00:38:06;;;;;;;37.47;35.17;;;;;;;-141.22;100.00;65034.22;5013735;28;20440;-42
2023/03/11 00:40:36;;;;;;;36.13;34.20;;;;;;;-141.22;100.00;65034.22;5013811;28;20524;-45
2023/03/11 00:43:04;;;;;;;37.83;35.57;;;;;;;-141.22;100.00;65034.22;5013334;28;20453;-46
2023/03/11 00:45:32;;;;;;;37.47;35.40;;;;;;;-141.22;100.00;65034.22;5013049;28;20468;-45
2023/03/11 00:48:00;;;;;;;36.83;34.47;;;;;;;-141.22;100.00;65034.22;5013849;28;20476;-45
2023/03/11 00:50:30;;;;;;;36.07;34.00;;;;;;;-141.22;100.00;65034.22;5013789;28;20437;-47
2023/03/11 00:52:58;;;;;;;38.23;35.90;;;;;;;-141.22;100.00;65034.22;5013350;28;20994;-46
2023/03/11 00:55:27;;;;;;;38.10;35.90;;;;;;;-141.22;100.00;65034.22;5012861;28;21060;-44
2023/03/11 00:57:58;;;;;;;39.37;36.97;;;;;;;-141.22;100.00;65034.22;5013612;28;20815;-47
2023/03/11 01:00:28;;;;;;;36.80;34.80;;;;;;;-141.22;100.00;65034.22;5013596;28;20433;-42
2023/03/11 01:02:57;;;;;;;37.30;35.07;;;;;;;-141.22;100.00;65034.22;5012901;28;20463;-44
2023/03/11 01:05:28;;;;;;;39.50;37.10;;;;;;;-141.22;100.00;65034.22;5012868;28;20469;-47
2023/03/11 01:07:55;;;;;;;41.97;39.33;;;;;;;-141.22;100.00;65034.22;5013373;28;20518;-48
2023/03/11 01:10:23;;;;;;;39.27;36.90;;;;;;;-141.22;100.00;65034.22;5013292;28;20436;-42
2023/03/11 01:12:51;;;;;;;40.33;38.03;;;;;;;-141.22;100.00;65034.22;5012367;28;20444;-43
2023/03/11 01:15:23;;;;;;;38.63;36.17;;;;;;;-141.22;100.00;65034.22;5012827;28;20997;-45
2023/03/11 01:17:51;;;;;;;40.30;37.53;;;;;;;-141.22;100.00;65034.22;5013204;28;20520;-43
2023/03/11 01:20:18;;;;;;;39.43;37.10;;;;;;;-141.22;100.00;65034.22;5013184;28;20834;-47
2023/03/11 01:22:46;;;;;;;40.67;38.27;;;;;;;-141.22;100.00;65034.22;5012266;28;20460;-46
2023/03/11 01:25:16;;;;;;;41.57;39.17;;;;;;;-141.22;100.00;65034.22;5012075;28;20471;-45
2023/03/11 01:27:44;;;;;;;41.80;39.33;;;;;;;-141.22;100.00;65034.22;5012940;28;20539;-47
2023/03/11 01:30:15;;;;;;;43.60;41.03;;;;;;;-141.22;100.00;65034.22;5012562;28;20425;-43
2023/03/11 01:32:44;;;;;;;45.77;43.07;;;;;;;-141.22;100.00;65034.22;5012735;28;21156;-43
2023/03/11 01:35:14;;;;;;;41.50;38.70;;;;;;;-141.22;100.00;65034.22;5012371;28;20519;-45
2023/03/11 01:37:41;;;;;;;42.47;40.00;;;;;;;-141.22;100.00;65034.22;5012441;28;20440;-43
2023/03/11 01:40:16;;;;;;;43.80;41.20;;;;;;;-141.22;100.00;65034.22;5018178;28;20448;-49
2023/03/11 01:42:44;;;;;;;43.27;40.80;;;;;;;-141.22;100.00;65034.22;5018160;28;20448;-48
2023/03/11 01:45:35;;;;;;;43.83;41.27;;;;;;;-141.22;100.00;65034.22;5018141;28;20449;-48
2023/03/11 01:48:05;;;;;;;44.03;41.63;;;;;;;-141.22;100.00;65034.22;5018439;28;20477;-49
2023/03/11 01:50:36;;;;;;;44.83;41.93;;;;;;;-141.22;100.00;65034.22;5017435;28;20441;-45
2023/03/11 01:53:05;;;;;;;47.50;44.70;;;;;;;-141.22;100.00;65034.22;5017419;28;20461;-46
2023/03/11 01:55:33;;;;;;;46.30;43.50;;;;;;;-141.22;100.00;65034.22;5017427;28;20815;-49
2023/03/11 01:58:05;;;;;;;46.13;43.30;;;;;;;-141.22;100.00;65034.22;5018807;28;20448;-45
2023/03/11 02:00:33;;;;;;;48.63;45.83;;;;;;;-141.22;100.00;65034.22;5018576;28;20448;-45
2023/03/11 02:03:06;;;;;;;45.93;43.50;;;;;;;-141.22;100.00;65034.22;5018036;28;20487;-46
2023/03/11 02:05:36;;;;;;;46.57;43.67;;;;;;;-141.22;100.00;65034.22;5017372;28;20511;-46
2023/03/11 02:08:04;;;;;;;44.47;42.07;;;;;;;-141.22;100.00;65034.22;5017861;28;20429;-49
2023/03/11 02:10:31;;;;;;;46.00;43.10;;;;;;;-141.22;100.00;65034.22;5018655;28;20436;-51
2023/03/11 02:13:00;;;;;;;45.23;42.63;;;;;;;-141.22;100.00;65034.22;5017690;28;20531;-43
2023/03/11 02:15:28;;;;;;;46.47;43.60;;;;;;;-141.22;100.00;65034.22;5017608;28;20480;-50
2023/03/11 02:17:56;;;;;;;46.67;44.10;;;;;;;-141.22;100.00;65034.22;5018664;28;20503;-50
2023/03/11 02:20:36;;;;;;;48.43;45.83;;;;;;;-141.22;100.00;65034.22;5018298;28;20448;-47
2023/03/11 02:23:05;;;;;;;49.03;46.07;;;;;;;-141.22;100.00;65034.22;5018044;28;20445;-45
2023/03/11 02:25:39;;;;;;;46.43;43.93;;;;;;;-141.22;100.00;65034.22;5017363;28;20465;-46
2023/03/11 02:28:11;;;;;;;49.70;46.90;;;;;;;-141.22;100.00;65034.22;5017763;28;20787;-44
2023/03/11 02:30:42;;;;;;;51.87;48.87;;;;;;;-141.22;100.00;65034.22;5018210;28;20428;-50
2023/03/11 02:33:11;;;;;;;51.93;48.73;;;;;;;-141.22;100.00;65034.22;5016530;28;20457;-48
2023/03/11 02:35:39;;;;;;;50.57;47.97;;;;;;;-141.22;100.00;65034.22;5016431;28;20468;-49
2023/03/11 02:38:07;;;;;;;54.03;50.67;;;;;;;-141.22;100.00;65034.22;5016526;28;20520;-47
2023/03/11 02:40:47;;;;;;;54.80;51.70;;;;;;;-141.22;100.00;65034.22;5016948;28;20444;-50
2023/03/11 02:43:19;;;;;;;53.10;50.30;;;;;;;-141.22;100.00;65034.22;5016675;28;20452;-46
2023/03/11 02:45:49;;;;;;;52.67;49.77;;;;;;;-141.22;100.00;65034.22;5016941;28;20494;-45
2023/03/11 02:48:17;;;;;;;51.13;48.30;;;;;;;-141.22;100.00;65034.22;5017852;28;20437;-47
2023/03/11 02:50:46;;;;;;;55.30;52.17;;;;;;;-141.22;100.00;65034.22;5017951;28;20553;-47
2023/03/11 02:53:14;;;;;;;53.20;50.10;;;;;;;-141.22;100.00;65034.22;5017591;28;20479;-45
2023/03/11 02:55:41;;;;;;;55.70;52.70;;;;;;;-141.22;100.00;65034.22;5012220;28;20468;-49
2023/03/11 02:58:09;;;;;;;52.23;49.53;;;;;;;-141.22;100.00;65034.22;5017563;28;20532;-48
2023/03/11 03:00:38;;;;;;;54.50;51.53;;;;;;;-141.22;100.00;65034.22;5017479;28;20431;-48
2023/03/11 03:03:06;;;;;;;53.10;50.13;;;;;;;-141.22;100.00;65034.22;5017933;28;20479;-45
2023/03/11 03:05:34;;;;;;;50.60;48.00;;;;;;;-141.22;100.00;65034.22;5017217;28;20998;-46
2023/03/11 03:08:02;;;;;;;51.90;49.10;;;;;;;-141.22;100.00;65034.22;5017305;28;20453;-48
2023/03/11 03:10:29;;;;;;;49.60;47.00;;;;;;;-141.22;100.00;65034.22;5017056;28;20473;-46
2023/03/11 03:12:57;;;;;;;49.50;46.73;;;;;;;-141.22;100.00;65034.22;5017261;28;20460;-47
2023/03/11 03:15:25;;;;;;;50.53;47.73;;;;;;;-141.22;100.00;65034.22;5016608;28;20457;-45
2023/03/11 03:17:54;;;;;;;49.10;46.50;;;;;;;-141.22;100.00;65034.22;5017200;28;20443;-44
2023/03/11 03:20:22;;;;;;;46.83;44.23;;;;;;;-141.22;100.00;65034.22;5017020;28;20467;-45
2023/03/11 03:22:50;;;;;;;46.10;43.60;;;;;;;-141.22;100.00;65034.22;5016406;28;20460;-47
2023/03/11 03:25:18;;;;;;;45.40;42.87;;;;;;;-141.22;100.00;65034.22;5016727;28;20461;-47
2023/03/11 03:27:46;;;;;;;41.93;39.53;;;;;;;-141.22;100.00;65034.22;5017023;28;20441;-48
2023/03/11 03:30:14;;;;;;;44.33;41.83;;;;;;;-141.22;100.00;65034.22;5016943;28;20480;-49
2023/03/11 03:32:41;;;;;;;42.37;39.93;;;;;;;-141.22;100.00;65034.22;5016655;28;20453;-48
2023/03/11 03:35:11;;;;;;;42.73;40.20;;;;;;;-141.22;100.00;65034.22;5016802;28;20483;-46
2023/03/11 03:37:39;;;;;;;41.10;38.90;;;;;;;-141.22;100.00;65034.22;5016473;28;20429;-47
2023/03/11 03:40:08;;;;;;;41.00;38.93;;;;;;;-141.22;100.00;65034.22;5016614;28;20443;-45
2023/03/11 03:42:37;;;;;;;39.00;36.90;;;;;;;-141.22;100.00;65034.22;5016248;28;20483;-45
2023/03/11 03:45:07;;;;;;;40.90;38.40;;;;;;;-141.22;100.00;65034.22;5016201;28;20465;-47
2023/03/11 03:47:36;;;;;;;40.03;37.93;;;;;;;-141.22;100.00;65034.22;5017123;28;20425;-46
2023/03/11 03:50:03;;;;;;;42.90;40.60;;;;;;;-141.22;100.00;65034.22;5016658;28;20563;-43
2023/03/11 03:52:33;;;;;;;41.13;38.73;;;;;;;-141.22;100.00;65034.22;5016539;28;20461;-47
2023/03/11 03:55:01;;;;;;;39.73;37.77;;;;;;;-141.22;100.00;65034.22;5015813;28;20476;-47
2023/03/11 03:57:29;;;;;;;42.17;39.77;;;;;;;-141.22;100.00;65034.22;5016363;28;20437;-46
2023/03/11 03:59:56;;;;;;;41.20;38.97;;;;;;;-141.22;100.00;65034.22;5016378;28;20439;-45
2023/03/11 04:02:24;;;;;;;41.00;38.80;;;;;;;-141.22;100.00;65034.22;5016338;28;20453;-47
2023/03/11 04:04:52;;;;;;;42.17;39.97;;;;;;;-141.22;100.00;65034.22;5016272;28;21001;-45
2023/03/11 04:07:19;;;;;;;39.43;37.30;;;;;;;-141.22;100.00;65034.22;5015936;28;20487;-45
2023/03/11 04:09:48;;;;;;;42.80;40.63;;;;;;;-141.22;100.00;65034.22;5017988;28;20510;-46
2023/03/11 04:12:17;;;;;;;43.40;40.97;;;;;;;-141.22;100.00;65034.22;5020281;28;20456;-47
2023/03/11 04:14:44;;;;;;;42.50;40.10;;;;;;;-141.22;100.00;65034.22;5018993;28;20535;-47
2023/03/11 04:17:13;;;;;;;44.60;41.97;;;;;;;-141.22;100.00;65034.22;5020361;28;20437;-45
2023/03/11 04:19:41;;;;;;;42.07;39.67;;;;;;;-141.22;100.00;65034.22;5021100;28;20464;-51
2023/03/11 04:22:09;;;;;;;44.20;41.70;;;;;;;-141.22;100.00;65034.22;5018622;28;20453;-48
2023/03/11 04:24:36;;;;;;;43.03;40.53;;;;;;;-141.22;100.00;65034.22;5019661;28;20501;-49
2023/03/11 04:27:05;;;;;;;44.60;42.30;;;;;;;-141.22;100.00;65034.22;5020461;28;20487;-47
2023/03/11 04:29:34;;;;;;;42.27;40.17;;;;;;;-141.22;100.00;65034.22;5020819;28;20473;-45
2023/03/11 04:32:01;;;;;;;46.07;43.60;;;;;;;-141.22;100.00;65034.22;5019777;28;20432;-48
2023/03/11 04:34:29;;;;;;;48.60;45.90;;;;;;;-141.22;100.00;65034.22;5019745;28;20444;-48
2023/03/11 04:36:57;;;;;;;45.40;42.70;;;;;;;-141.22;100.00;65034.22;5015965;28;20457;-48
2023/03/11 04:39:24;;;;;;;49.33;46.30;;;;;;;-141.22;100.00;65034.22;5020518;28;20517;-46
2023/03/11 04:41:52;;;;;;;46.60;43.97;;;;;;;-141.22;100.00;65034.22;5018164;28;20802;-46
2023/03/11 04:44:21;;;;;;;46.03;43.53;;;;;;;-141.22;100.00;65034.22;5019933;28;20440;-46
2023/03/11 04:46:49;;;;;;;47.80;45.50;;;;;;;-141.22;100.00;65034.22;5019337;28;20473;-46
2023/03/11 04:49:16;;;;;;;48.53;45.93;;;;;;;-141.22;100.00;65034.22;5019894;28;20433;-45
2023/03/11 04:51:44;;;;;;;49.03;45.93;;;;;;;-141.22;100.00;65034.22;5019220;28;20440;-46
2023/03/11 04:54:12;;;;;;;47.57;45.10;;;;;;;-141.22;100.00;65034.22;5019181;28;20456;-48
2023/03/11 04:56:40;;;;;;;48.37;45.47;;;;;;;-141.22;100.00;65034.22;5019181;28;20461;-46
2023/03/11 04:59:07;;;;;;;47.47;44.97;;;;;;;-141.22;100.00;65034.22;5020119;28;20499;-45
2023/03/11 05:01:36;;;;;;;48.93;46.30;;;;;;;-141.22;100.00;65034.22;5020025;28;20441;-47
2023/03/11 05:04:05;;;;;;;49.97;47.17;;;;;;;-141.22;100.00;65034.22;5018525;28;20892;-46
2023/03/11 05:06:33;;;;;;;47.90;45.30;;;;;;;-141.22;100.00;65034.22;5018926;28;20457;-43
2023/03/11 05:09:00;;;;;;;48.23;45.73;;;;;;;-141.22;100.00;65034.22;5018984;28;20954;-46
2023/03/11 05:11:28;;;;;;;49.00;46.17;;;;;;;-141.22;100.00;65034.22;5018195;28;20480;-47
2023/03/11 05:13:56;;;;;;;46.87;44.10;;;;;;;-141.22;100.00;65034.22;5018323;28;20463;-44
2023/03/11 05:16:24;;;;;;;47.73;45.30;;;;;;;-141.22;100.00;65034.22;5018554;28;20457;-48
2023/03/11 05:18:53;;;;;;;48.90;46.20;;;;;;;-141.22;100.00;65034.22;5019041;28;20441;-44
2023/03/11 05:21:20;;;;;;;48.40;45.80;;;;;;;-141.22;100.00;65034.22;5018333;28;20427;-46
2023/03/11 05:23:48;;;;;;;50.40;47.47;;;;;;;-141.22;100.00;65034.22;5018295;28;20457;-47
2023/03/11 05:26:16;;;;;;;48.03;45.43;;;;;;;-141.22;100.00;65034.22;5018043;28;20461;-46
2023/03/11 05:28:44;;;;;;;49.67;47.07;;;;;;;-141.22;100.00;65034.22;5018780;28;20437;-46
2023/03/11 05:31:12;;;;;;;50.03;47.30;;;;;;;-141.22;100.00;65034.22;5018159;28;20487;-46
2023/03/11 05:33:39;;;;;;;48.63;45.83;;;;;;;-141.22;100.00;65034.22;5019540;28;20453;-44
2023/03/11 05:36:10;;;;;;;49.90;47.13;;;;;;;-141.22;100.00;65034.22;5019271;28;20488;-48
2023/03/11 05:38:38;;;;;;;50.47;47.97;;;;;;;-141.22;100.00;65034.22;5019851;28;20463;-47
2023/03/11 05:41:06;;;;;;;51.47;48.67;;;;;;;-141.22;100.00;65034.22;5019560;28;20425;-45
2023/03/11 05:43:33;;;;;;;48.72;46.08;;;;;;;-141.22;100.00;65034.22;5018573;28;20460;-49
2023/03/11 05:46:01;;;;;;;44.90;42.50;;;;;;;-141.22;100.00;65034.22;5014657;28;20474;-45
2023/03/11 05:48:29;;;;;;;47.33;44.73;;;;;;;-141.22;100.00;65034.22;5017577;28;20198;-46
2023/03/11 05:50:58;;;;;;;49.60;46.70;;;;;;;-141.22;100.00;65034.22;5015507;28;20480;-47
2023/03/11 05:53:27;;;;;;;50.50;47.60;;;;;;;-141.22;100.00;65034.22;5016329;28;20461;-44
2023/03/11 05:55:57;;;;;;;51.77;48.80;;;;;;;-141.22;100.00;65034.22;5016063;28;20457;-48
2023/03/11 05:58:25;;;;;;;49.90;47.30;;;;;;;-141.22;100.00;65034.22;5015576;28;20525;-47
2023/03/11 06:00:53;;;;;;;48.03;45.73;;;;;;;-141.22;100.00;65034.22;5015892;28;20501;-49
2023/03/11 06:03:21;;;;;;;49.50;46.90;;;;;;;-141.22;100.00;65034.22;5015900;28;20472;-47
2023/03/11 06:05:49;;;;;;;48.90;46.50;;;;;;;-141.22;100.00;65034.22;5014884;28;20990;-45
2023/03/11 06:08:17;;;;;;;49.17;46.47;;;;;;;-141.22;100.00;65034.22;5016763;28;20453;-45
2023/03/11 06:10:46;;;;;;;46.60;44.33;;;;;;;-141.22;100.00;65034.22;5016174;28;20500;-44
2023/03/11 06:13:15;;;;;;;45.17;42.87;;;;;;;-141.22;100.00;65034.22;5016732;28;20449;-45
2023/03/11 06:15:44;;;;;;;44.93;42.30;;;;;;;-141.22;100.00;65034.22;5015423;28;20477;-46
2023/03/11 06:18:12;;;;;;;45.10;42.83;;;;;;;-141.22;100.00;65034.22;5016132;28;20437;-49
2023/03/11 06:20:39;;;;;;;44.87;42.77;;;;;;;-141.22;100.00;65034.22;5015716;28;20961;-45
2023/03/11 06:23:07;;;;;;;44.33;42.07;;;;;;;-141.22;100.00;65034.22;5014761;28;20476;-47
2023/03/11 06:25:35;;;;;;;42.23;40.20;;;;;;;-141.22;100.00;65034.22;5015268;28;20512;-44
2023/03/11 06:28:04;;;;;;;41.40;39.10;;;;;;;-141.22;100.00;65034.22;5014673;28;20430;-46
2023/03/11 06:30:32;;;;;;;43.33;41.23;;;;;;;-141.22;100.00;65034.22;5014572;28;20472;-45
2023/03/11 06:33:00;;;;;;;40.70;38.67;;;;;;;-141.22;100.00;65034.22;5012826;28;20829;-46
2023/03/11 06:35:28;;;;;;;42.07;40.07;;;;;;;-141.22;100.00;65034.22;5012726;28;20460;-44
2023/03/11 06:37:55;;;;;;;41.40;39.40;;;;;;;-141.22;100.00;65034.22;5013837;28;20436;-45
2023/03/11 06:40:23;;;;;;;39.30;37.40;;;;;;;-141.22;100.00;65034.22;5013715;28;20524;-47
2023/03/11 06:42:51;;;;;;;37.37;35.57;;;;;;;-141.22;100.00;65034.22;5014381;28;20460;-45
2023/03/11 06:45:20;;;;;;;36.50;34.67;;;;;;;-141.22;100.00;65034.22;5013556;28;20464;-46
2023/03/11 06:47:47;;;;;;;35.30;33.60;;;;;;;-141.22;100.00;65034.22;5014478;28;20456;-45
2023/03/11 06:50:16;;;;;;;34.03;32.40;;;;;;;-141.22;100.00;65034.22;5013265;28;20519;-47
2023/03/11 06:52:43;;;;;;;31.50;30.00;;;;;;;-141.22;100.00;65034.22;5013386;28;20485;-43
2023/03/11 06:55:11;;;;;;;30.80;29.50;;;;;;;-141.22;100.00;65034.22;5013568;28;20444;-45
2023/03/11 06:57:39;;;;;;;30.37;29.00;;;;;;;-141.22;100.00;65034.22;5014450;28;20445;-47
2023/03/11 07:00:10;;;;;;;29.27;27.97;;;;;;;-141.22;100.00;65034.22;5013274;28;20433;-45
2023/03/11 07:02:39;;;;;;;26.23;25.23;;;;;;;-141.22;100.00;65034.22;5013651;28;20928;-48
2023/03/11 07:05:08;;;;;;;27.03;25.83;;;;;;;-141.22;100.00;65034.22;5013169;28;20436;-47
2023/03/11 07:07:35;;;;;;;26.10;25.00;;;;;;;-141.22;100.00;65034.22;5014806;28;20433;-50
2023/03/11 07:10:04;;;;;;;25.53;24.43;;;;;;;-141.22;100.00;65034.22;5014272;28;20806;-44
2023/03/11 07:12:31;;;;;;;23.40;22.43;;;;;;;-141.22;100.00;65034.22;5014058;28;20488;-45
2023/03/11 07:15:00;;;;;;;24.70;23.60;;;;;;;-141.22;100.00;65034.22;5013404;28;20433;-44
2023/03/11 07:17:27;;;;;;;24.70;23.53;;;;;;;-141.22;100.00;65034.22;5013868;28;20436;-45
2023/03/11 07:19:56;;;;;;;24.97;23.67;;;;;;;-141.22;100.00;65034.22;5013495;28;20425;-46
2023/03/11 07:22:24;;;;;;;24.63;23.43;;;;;;;-141.22;100.00;65034.22;5012925;28;20445;-46
2023/03/11 07:24:52;;;;;;;24.23;23.30;;;;;;;-141.22;100.00;65034.22;5010153;28;21085;-44
2023/03/11 07:27:20;;;;;;;27.73;26.53;;;;;;;-141.22;100.00;65034.22;5009716;28;20448;-44
2023/03/11 07:29:48;;;;;;;26.23;24.63;;;;;;;-141.22;100.00;65034.22;5009203;28;20854;-44
2023/03/11 07:32:16;;;;;;;25.73;24.30;;;;;;;-141.22;100.00;65034.22;5010079;28;20480;-44
2023/03/11 07:34:44;;;;;;;23.37;22.37;;;;;;;-141.22;100.00;65034.22;5009527;28;20445;-44
2023/03/11 07:37:13;;;;;;;24.60;23.40;;;;;;;-141.22;100.00;65034.22;5007525;28;21017;-44
2023/03/11 07:39:41;;;;;;;23.60;22.60;;;;;;;-141.22;100.00;65034.22;5010943;28;20460;-44
2023/03/11 07:42:09;;;;;;;21.73;20.73;;;;;;;-141.22;100.00;65034.22;5016278;28;20997;-43
2023/03/11 07:44:36;;;;;;;22.30;21.27;;;;;;;-141.22;100.00;65034.22;5018047;28;20429;-45
2023/03/11 07:47:05;;;;;;;19.77;19.07;;;;;;;-141.22;100.00;65034.22;5019553;28;20924;-43
2023/03/11 07:49:33;;;;;;;20.67;19.87;;;;;;;-141.22;100.00;65034.22;5018215;28;20435;-47
2023/03/11 07:52:00;;;;;;;20.00;19.10;;;;;;;-141.22;100.00;65034.22;5019661;28;20476;-44
2023/03/11 07:54:29;;;;;;;19.53;18.73;;;;;;;-141.22;100.00;65034.22;5017364;28;20448;-45
2023/03/11 07:56:57;;;;;;;19.53;18.53;;;;;;;-141.22;100.00;65034.22;5019245;28;20457;-43
2023/03/11 07:59:25;;;;;;;19.57;18.63;;;;;;;-141.22;100.00;65034.22;5019930;28;20441;-44
2023/03/11 08:01:52;;;;;;;19.10;17.90;;;;;;;-141.22;100.00;65034.22;5019859;28;20463;-43
2023/03/11 08:04:20;;;;;;;19.07;18.33;;;;;;;-141.22;100.00;65034.22;5019868;28;20435;-43
2023/03/11 08:06:48;;;;;;;19.30;18.50;;;;;;;-141.22;100.00;65034.22;5017664;28;20460;-46
2023/03/11 08:09:16;;;;;;;19.17;18.47;;;;;;;-141.22;100.00;65034.22;5018907;28;20425;-46
2023/03/11 08:11:45;;;;;;;20.80;19.80;;;;;;;-141.22;100.00;65034.22;5019022;28;20473;-45
2023/03/11 08:14:15;;;;;;;20.27;18.97;;;;;;;-141.22;100.00;65034.22;5019331;28;20421;-46
2023/03/11 08:16:43;;;;;;;19.20;18.50;;;;;;;-141.22;100.00;65034.22;5019424;28;20465;-43
2023/03/11 08:19:11;;;;;;;19.10;18.37;;;;;;;-141.22;100.00;65034.22;5019328;28;20530;-43
2023/03/11 08:21:39;;;;;;;16.40;15.80;;;;;;;-141.22;100.00;65034.22;5019178;28;20429;-46
2023/03/11 08:24:07;;;;;;;17.23;16.53;;;;;;;-141.22;100.00;65034.22;5017123;28;20457;-44
2023/03/11 08:26:35;;;;;;;16.03;15.43;;;;;;;-141.22;100.00;65034.22;5018621;28;20471;-44
2023/03/11 08:29:04;;;;;;;16.60;15.83;;;;;;;-141.22;100.00;65034.22;5020098;28;20432;-48
2023/03/11 08:31:33;;;;;;;15.90;15.30;;;;;;;-141.22;100.00;65034.22;5018429;28;20455;-44
2023/03/11 08:34:04;;;;;;;14.67;13.97;;;;;;;-141.22;100.00;65034.22;5019334;28;20452;-45
2023/03/11 08:36:32;;;;;;;14.33;13.73;;;;;;;-141.22;100.00;65034.22;5016045;28;20457;-44
2023/03/11 08:39:00;;;;;;;14.90;14.20;;;;;;;-141.22;100.00;65034.22;5019846;28;20468;-43
2023/03/11 08:41:28;;;;;;;13.10;12.50;;;;;;;-141.22;100.00;65034.22;5018301;28;20422;-43
2023/03/11 08:43:56;;;;;;;12.90;12.50;;;;;;;-141.22;100.00;65034.22;5019767;28;20457;-48
2023/03/11 08:46:27;;;;;;;11.57;11.13;;;;;;;-141.22;100.00;65034.22;5017127;28;20515;-43
2023/03/11 08:48:57;;;;;;;12.20;11.70;;;;;;;-141.22;100.00;65034.22;5018209;28;20931;-46
2023/03/11 08:51:29;;;;;;;10.27;9.97;;;;;;;-141.22;100.00;65034.22;5018949;28;20429;-43
2023/03/11 08:53:56;;;;;;;10.70;10.17;;;;;;;-141.22;100.00;65034.22;5019778;28;20457;-44
2023/03/11 08:56:25;;;;;;;12.03;11.43;;;;;;;-141.22;100.00;65034.22;5017930;28;20461;-43
2023/03/11 08:58:54;;;;;;;10.30;9.73;;;;;;;-141.22;100.00;65034.22;5018173;28;20425;-45
2023/03/11 09:01:22;;;;;;;9.77;9.47;;;;;;;-141.22;100.00;65034.22;5018321;28;20438;-43
2023/03/11 09:03:51;;;;;;;10.73;10.27;;;;;;;-141.22;100.00;65034.22;5017721;28;20457;-43
2023/03/11 09:06:19;;;;;;;9.27;8.63;;;;;;;-141.22;100.00;65034.22;5017538;28;20471;-46
2023/03/11 09:08:48;;;;;;;10.77;10.17;;;;;;;-141.22;100.00;65034.22;5018277;28;20590;-43
2023/03/11 09:11:17;;;;;;;9.67;9.07;;;;;;;-141.22;100.00;65034.22;5017395;28;20531;-44
2023/03/11 09:13:45;;;;;;;8.70;8.37;;;;;;;-141.22;100.00;65034.22;5017935;28;20481;-43
2023/03/11 09:16:14;;;;;;;8.97;8.47;;;;;;;-141.22;100.00;65034.22;5015927;28;20531;-43
2023/03/11 09:18:42;;;;;;;8.70;8.20;;;;;;;-141.22;100.00;65034.22;5017397;28;20414;-46
2023/03/11 09:21:11;;;;;;;8.20;8.00;;;;;;;-141.22;100.00;65034.22;5016064;28;20536;-44
2023/03/11 09:23:40;;;;;;;8.77;8.20;;;;;;;-141.22;100.00;65034.22;5014127;28;20917;-46
2023/03/11 09:26:11;;;;;;;8.70;8.40;;;;;;;-141.22;100.00;65034.22;5016297;28;20464;-44
2023/03/11 09:28:39;;;;;;;8.50;7.90;;;;;;;-141.22;100.00;65034.22;5015376;28;20521;-46
2023/03/11 09:31:07;;;;;;;8.93;8.43;;;;;;;-141.22;100.00;65034.22;5017172;28;20429;-43
2023/03/11 09:33:37;;;;;;;8.10;7.80;;;;;;;-141.22;100.00;65034.22;5016587;28;20472;-47
2023/03/11 09:36:06;;;;;;;7.83;7.40;;;;;;;-141.22;100.00;65034.22;5016148;28;20492;-44
2023/03/11 09:38:35;;;;;;;8.00;7.80;;;;;;;-141.22;100.00;65034.22;5017998;28;20837;-46
2023/03/11 09:41:09;;;;;;;8.17;7.60;;;;;;;-141.22;100.00;65034.22;5017859;28;20476;-47
2023/03/11 09:43:53;;;;;;;9.07;8.57;;;;;;;-141.22;100.00;65034.22;5017871;28;20448;-44
2023/03/11 09:46:45;;;;;;;12.40;8.27;;;;;;;-141.22;100.00;65034.22;5017130;28;20464;-43
2023/03/11 09:49:21;;;;;;;8.27;7.97;;;;;;;-141.22;100.00;65034.22;5016575;28;20457;-46
2023/03/11 09:51:57;;;;;;;8.47;7.80;;;;;;;-141.22;100.00;65034.22;5016939;28;20946;-43
2023/03/11 09:54:29;;;;;;;7.63;7.23;;;;;;;-141.22;100.00;65034.22;5013310;28;20421;-44
2023/03/11 09:56:57;;;;;;;8.87;8.10;;;;;;;-141.22;100.00;65034.22;5016657;28;20497;-45
2023/03/11 09:59:30;;;;;;;7.83;7.60;;;;;;;-141.22;100.00;65034.22;5017386;28;20433;-46
2023/03/11 10:01:59;;;;;;;8.70;7.93;;;;;;;-141.22;100.00;65034.22;5016248;28;20483;-45
2023/03/11 10:04:32;;;;;;;8.80;8.23;;;;;;;-141.22;100.00;65034.22;5016786;28;20460;-46
2023/03/11 10:07:05;;;;;;;8.30;8.00;;;;;;;-141.22;100.00;65034.22;5015416;28;20468;-43
2023/03/11 10:09:40;;;;;;;7.30;6.83;;;;;;;-141.22;100.00;65034.22;5016535;28;20669;-46
2023/03/11 10:12:19;;;;;;;7.77;7.17;;;;;;;-141.22;100.00;65034.22;5016860;28;20459;-43
2023/03/11 10:15:03;;;;;;;7.30;6.90;;;;;;;-141.22;100.00;65034.22;5014616;28;20431;-46
2023/03/11 10:17:46;;;;;;;6.70;6.43;;;;;;;-141.22;100.00;65034.22;5015917;28;20430;-44
2023/03/11 10:20:20;;;;;;;7.57;6.97;;;;;;;-141.22;100.00;65034.22;5016943;28;20441;-43
2023/03/11 10:22:58;;;;;;;6.90;6.60;;;;;;;-141.22;100.00;65034.22;5015835;28;20804;-47
2023/03/11 10:25:30;;;;;;;6.53;6.23;;;;;;;-141.22;100.00;65034.22;5016546;28;20551;-43
2023/03/11 10:28:02;;;;;;;7.27;6.77;;;;;;;-141.22;100.00;65034.22;5015373;28;20835;-45
2023/03/11 10:30:33;;;;;;;6.47;6.10;;;;;;;-141.22;100.00;65034.22;5016575;28;20448;-46
2023/03/11 10:33:07;;;;;;;7.30;6.67;;;;;;;-141.22;100.00;65034.22;5016962;28;20527;-43
2023/03/11 10:35:39;;;;;;;6.97;6.53;;;;;;;-141.22;100.00;65034.22;5017150;28;20457;-44
2023/03/11 10:38:14;;;;;;;6.67;6.17;;;;;;;-141.22;100.00;65034.22;5017313;28;20421;-50
2023/03/11 10:40:44;;;;;;;7.50;6.93;;;;;;;-141.22;100.00;65034.22;5011550;28;20436;-48
2023/03/11 10:43:16;;;;;;;5.93;5.73;;;;;;;-141.22;100.00;65034.22;5016132;28;20624;-44
2023/03/11 10:45:47;;;;;;;5.80;5.70;;;;;;;-141.22;100.00;65034.22;5015657;28;20480;-48
2023/03/11 10:48:17;;;;;;;6.30;6.10;;;;;;;-141.22;100.00;65034.22;5016311;28;20421;-43
2023/03/11 10:50:52;;;;;;;5.83;5.50;;;;;;;-141.22;100.00;65034.22;5015309;28;20429;-45
2023/03/11 10:53:20;;;;;;;5.70;5.30;;;;;;;-141.22;100.00;65034.22;5009374;28;20483;-43
2023/03/11 10:55:51;;;;;;;6.50;6.20;;;;;;;-141.22;100.00;65034.22;5015328;28;20866;-43
2023/03/11 10:58:21;;;;;;;7.00;6.50;;;;;;;-141.22;100.00;65034.22;5015259;28;20425;-46
2023/03/11 11:01:00;;;;;;;6.77;6.37;;;;;;;-141.22;100.00;65034.22;5010074;28;20448;-43
2023/03/11 11:03:29;;;;;;;6.20;5.73;;;;;;;-141.22;100.00;65034.22;5015881;28;20441;-44
2023/03/11 11:05:59;;;;;;;6.23;5.93;;;;;;;-141.22;100.00;65034.22;5013637;28;20467;-45